TAF Text Data
IDs:
Format:
Raw Decoded Include METAR

Data at: 0604 UTC 24 Jan 2019

KBCE 240553Z AUTO 31006KT 10SM SCT070 M04/M09 A3021 RMK AO2 SLP248 T10441094 10017 21056 51008

KBCE 240544Z 2406/2506 33010KT P6SM SCT060
  FM241000 33010KT P6SM SCT060
  FM241700 34008KT P6SM SCT200